createdAt,value
2023-01-19T00:00:24.856Z,74.30
2023-01-19T00:05:27.098Z,74.30
2023-01-19T00:10:29.305Z,74.10
2023-01-19T00:15:32.987Z,74.90
2023-01-19T00:20:35.268Z,74.20
2023-01-19T00:25:38.577Z,74.60
2023-01-19T00:30:43.260Z,74.40
2023-01-19T00:35:50.579Z,74.50
2023-01-19T00:40:53.015Z,74.40
2023-01-19T00:45:56.650Z,74.40
2023-01-19T00:50:59.039Z,73.70
2023-01-19T00:56:01.233Z,73.80
2023-01-19T01:01:05.257Z,73.50
2023-01-19T01:06:07.581Z,73.70
2023-01-19T01:11:09.765Z,73.70
2023-01-19T01:16:15.432Z,73.80
2023-01-19T01:21:17.601Z,74.10
2023-01-19T01:26:19.815Z,73.90
2023-01-19T01:31:23.493Z,74.00
2023-01-19T01:36:25.894Z,74.30
2023-01-19T01:41:28.042Z,74.30
2023-01-19T01:46:33.203Z,74.10
2023-01-19T01:51:42.308Z,74.10
2023-01-19T01:56:47.759Z,74.20
2023-01-19T02:01:52.222Z,74.20
2023-01-19T02:06:54.439Z,74.30
2023-01-19T02:11:57.269Z,74.20
2023-01-19T02:17:01.313Z,74.50
2023-01-19T02:22:12.761Z,75.00
2023-01-19T02:27:17.302Z,74.50
2023-01-19T02:32:19.594Z,74.70
2023-01-19T02:37:22.300Z,74.70
2023-01-19T02:42:32.280Z,74.30
2023-01-19T02:47:39.350Z,74.10
2023-01-19T02:52:41.631Z,74.30
2023-01-19T02:57:58.415Z,74.50
2023-01-19T03:03:20.596Z,74.30
2023-01-19T03:08:42.267Z,74.30
2023-01-19T03:13:52.877Z,74.70
2023-01-19T03:19:02.964Z,74.40
2023-01-19T03:24:09.734Z,74.30
2023-01-19T03:29:17.097Z,74.60
2023-01-19T03:34:21.524Z,74.50
2023-01-19T03:39:26.637Z,74.30
2023-01-19T03:44:34.784Z,74.30
2023-01-19T03:49:40.289Z,74.10
2023-01-19T03:54:42.931Z,74.70
2023-01-19T03:59:46.407Z,74.50
2023-01-19T04:04:48.548Z,74.00
2023-01-19T04:09:50.701Z,74.30
2023-01-19T04:14:54.486Z,74.50
2023-01-19T04:19:56.677Z,74.70
2023-01-19T04:24:58.979Z,74.80
2023-01-19T04:30:04.365Z,74.70
2023-01-19T04:35:07.127Z,74.70
2023-01-19T04:40:11.214Z,74.90
2023-01-19T04:45:15.388Z,74.60
2023-01-19T04:50:17.792Z,74.50
2023-01-19T04:55:19.954Z,74.80
2023-01-19T05:00:23.836Z,74.80
2023-01-19T05:05:25.962Z,74.60
2023-01-19T05:10:28.307Z,74.90
2023-01-19T05:15:32.005Z,75.00
2023-01-19T05:20:34.302Z,74.70
2023-01-19T05:25:36.544Z,74.80
2023-01-19T05:30:40.290Z,74.90
2023-01-19T05:35:42.574Z,74.50
2023-01-19T05:40:44.932Z,74.70
2023-01-19T05:45:48.628Z,74.70
2023-01-19T05:50:51.588Z,74.50
2023-01-19T05:55:54.538Z,74.70
2023-01-19T06:01:03.782Z,74.50
2023-01-19T06:06:07.221Z,74.60
2023-01-19T06:11:09.739Z,74.60
2023-01-19T06:16:13.616Z,74.80
2023-01-19T06:21:16.182Z,74.70
2023-01-19T06:26:18.721Z,74.50
2023-01-19T06:31:22.920Z,74.50
2023-01-19T06:36:25.627Z,74.50
2023-01-19T06:41:28.239Z,74.40
2023-01-19T06:46:32.494Z,74.40
2023-01-19T06:51:36.197Z,74.60
2023-01-19T06:56:44.548Z,74.80
2023-01-19T07:02:27.715Z,74.60
2023-01-19T07:07:30.489Z,74.50
2023-01-19T07:12:34.755Z,74.40
2023-01-19T07:17:39.341Z,74.50
2023-01-19T07:22:42.807Z,74.00
2023-01-19T07:27:46.076Z,73.80
2023-01-19T07:33:12.330Z,74.10
2023-01-19T07:38:18.869Z,73.80
2023-01-19T07:43:21.347Z,74.20
2023-01-19T07:48:27.868Z,74.10
2023-01-19T07:53:34.591Z,74.20
2023-01-19T07:58:38.821Z,74.20
2023-01-19T08:03:43.069Z,74.30
2023-01-19T08:08:52.542Z,73.90
2023-01-19T08:14:08.020Z,73.80
2023-01-19T08:19:41.519Z,73.80
2023-01-19T08:24:45.443Z,73.80
2023-01-19T08:29:49.635Z,74.00
2023-01-19T08:34:58.729Z,73.90
2023-01-19T08:40:16.601Z,73.90
2023-01-19T08:45:20.121Z,73.70
2023-01-19T08:50:27.856Z,73.50
2023-01-19T08:55:30.716Z,73.50
2023-01-19T09:00:35.178Z,73.60
2023-01-19T09:05:46.399Z,73.70
2023-01-19T09:10:53.217Z,73.50
2023-01-19T09:15:56.469Z,73.00
2023-01-19T09:21:02.423Z,72.90
2023-01-19T09:26:10.706Z,72.80
2023-01-19T09:31:21.146Z,73.30
2023-01-19T09:36:29.805Z,73.20
2023-01-19T09:41:36.641Z,73.40
2023-01-19T09:46:43.075Z,73.40
2023-01-19T09:52:25.347Z,73.00
2023-01-19T09:57:46.717Z,72.70
2023-01-19T10:02:58.300Z,73.30
2023-01-19T10:08:41.473Z,73.30
2023-01-19T10:13:55.539Z,72.90
2023-01-19T10:19:26.683Z,72.70
2023-01-19T10:24:47.712Z,72.70
2023-01-19T10:30:24.332Z,72.70
2023-01-19T10:35:29.668Z,72.40
2023-01-19T10:40:54.820Z,72.10
2023-01-19T10:46:01.573Z,72.70
2023-01-19T10:51:10.298Z,72.60
2023-01-19T10:56:21.881Z,72.50
2023-01-19T11:01:28.323Z,72.20
2023-01-19T11:06:33.308Z,72.40
2023-01-19T11:11:52.224Z,72.70
2023-01-19T11:17:17.137Z,72.40
2023-01-19T11:22:30.409Z,72.20
2023-01-19T11:27:52.197Z,72.50
2023-01-19T11:32:55.395Z,72.20
2023-01-19T11:38:21.573Z,72.60
2023-01-19T11:43:43.475Z,72.70
2023-01-19T11:49:04.640Z,72.50
2023-01-19T11:54:21.544Z,72.40
2023-01-19T11:59:26.827Z,72.20
2023-01-19T12:04:39.803Z,72.00
2023-01-19T12:09:51.208Z,71.80
2023-01-19T12:15:01.523Z,71.80
2023-01-19T12:20:28.575Z,71.50
2023-01-19T12:25:54.948Z,71.70
2023-01-19T12:31:17.150Z,71.70
2023-01-19T12:36:38.452Z,71.00
2023-01-19T12:41:58.340Z,71.10
2023-01-19T12:47:20.504Z,72.40
2023-01-19T12:52:29.546Z,72.60
2023-01-19T12:57:40.868Z,72.40
2023-01-19T13:02:46.877Z,73.00
2023-01-19T13:08:22.851Z,72.90
2023-01-19T13:13:31.586Z,72.40
2023-01-19T13:18:57.159Z,72.50
2023-01-19T13:24:25.176Z,72.50
2023-01-19T13:29:32.917Z,72.40
2023-01-19T13:34:46.715Z,72.50
2023-01-19T13:40:03.831Z,72.80
2023-01-19T13:45:31.474Z,73.30
2023-01-19T13:50:45.731Z,73.00
2023-01-19T13:56:07.168Z,72.40
2023-01-19T14:01:23.843Z,72.20
2023-01-19T14:07:31.111Z,72.10
2023-01-19T14:13:00.272Z,72.50
2023-01-19T14:18:12.026Z,72.00
2023-01-19T14:23:45.819Z,71.90
2023-01-19T14:28:53.283Z,71.80
2023-01-19T14:33:57.031Z,72.20
2023-01-19T14:39:16.620Z,71.80
2023-01-19T14:44:32.013Z,72.10
2023-01-19T14:49:38.862Z,72.30
2023-01-19T14:54:51.487Z,73.10
2023-01-19T14:59:55.377Z,72.70
2023-01-19T15:05:02.576Z,72.70
2023-01-19T15:10:17.541Z,72.30
2023-01-19T15:15:26.803Z,72.40
2023-01-19T15:20:29.920Z,72.70
2023-01-19T15:25:35.267Z,72.40
2023-01-19T15:30:39.551Z,72.30
2023-01-19T15:35:43.363Z,72.30
2023-01-19T15:40:51.396Z,72.40
2023-01-19T15:46:00.733Z,72.70
2023-01-19T15:51:03.571Z,72.40
2023-01-19T15:56:15.587Z,72.40
2023-01-19T16:01:20.818Z,72.50
2023-01-19T16:06:23.419Z,72.40
2023-01-19T16:11:28.701Z,72.30
2023-01-19T16:16:31.488Z,72.30
2023-01-19T16:21:34.099Z,72.30
2023-01-19T16:26:37.740Z,72.30
2023-01-19T16:31:42.495Z,72.60
2023-01-19T16:36:45.245Z,72.50
2023-01-19T16:41:49.293Z,72.90
2023-01-19T16:46:51.907Z,72.50
2023-01-19T16:51:54.657Z,72.70
2023-01-19T16:56:59.097Z,72.60
2023-01-19T17:02:01.899Z,72.50
2023-01-19T17:07:04.405Z,72.60
2023-01-19T17:12:08.247Z,73.40
2023-01-19T17:17:10.799Z,72.80
2023-01-19T17:22:13.949Z,73.20
2023-01-19T17:27:20.807Z,72.90
2023-01-19T17:32:23.392Z,73.20
2023-01-19T17:37:26.172Z,73.20
2023-01-19T17:42:30.348Z,73.00
2023-01-19T17:47:34.461Z,72.90
2023-01-19T17:52:36.914Z,72.90
2023-01-19T17:57:40.858Z,73.30
2023-01-19T18:02:43.091Z,73.30
2023-01-19T18:07:45.665Z,73.60
2023-01-19T18:12:49.240Z,73.50
2023-01-19T18:17:51.437Z,73.30
2023-01-19T18:22:53.604Z,73.50
2023-01-19T18:27:57.155Z,73.70
2023-01-19T18:32:59.380Z,73.60
2023-01-19T18:38:01.596Z,73.40
2023-01-19T18:43:05.172Z,73.70
2023-01-19T18:48:07.892Z,74.10
2023-01-19T18:53:10.136Z,74.00
2023-01-19T18:58:13.745Z,73.70
2023-01-19T19:03:16.751Z,73.60
2023-01-19T19:08:18.994Z,74.00
2023-01-19T19:13:22.680Z,73.90
2023-01-19T19:18:24.985Z,74.10
2023-01-19T19:23:27.365Z,73.90
2023-01-19T19:28:31.131Z,73.80
2023-01-19T19:33:34.232Z,73.90
2023-01-19T19:38:37.107Z,73.60
2023-01-19T19:43:42.161Z,73.50
2023-01-19T19:48:48.157Z,73.80
2023-01-19T19:53:51.893Z,74.00
2023-01-19T19:58:58.366Z,73.90
2023-01-19T20:04:08.248Z,73.60
2023-01-19T20:09:12.448Z,73.50
2023-01-19T20:14:16.539Z,73.80
2023-01-19T20:19:18.897Z,73.00
2023-01-19T20:24:22.346Z,72.60
2023-01-19T20:29:25.871Z,72.00
2023-01-19T20:34:33.368Z,72.10
2023-01-19T20:39:36.379Z,71.90
2023-01-19T20:44:40.362Z,72.10
2023-01-19T20:49:42.715Z,72.10
2023-01-19T20:54:45.449Z,71.20
2023-01-19T20:59:49.615Z,71.10
2023-01-19T21:04:51.976Z,69.70
2023-01-19T21:09:54.307Z,70.20
2023-01-19T21:14:57.835Z,70.00
2023-01-19T21:20:00.050Z,70.00
2023-01-19T21:25:02.228Z,69.60
2023-01-19T21:30:07.534Z,69.80
2023-01-19T21:35:10.834Z,70.30
2023-01-19T21:40:14.011Z,70.20
2023-01-19T21:45:17.749Z,70.20
2023-01-19T21:50:19.912Z,69.90
2023-01-19T21:55:22.073Z,70.00
2023-01-19T22:00:25.832Z,69.50
2023-01-19T22:05:28.028Z,70.10
2023-01-19T22:10:30.291Z,70.10
2023-01-19T22:15:34.037Z,70.00
2023-01-19T22:20:36.562Z,70.50
2023-01-19T22:25:38.801Z,70.60
2023-01-19T22:30:42.397Z,70.50
2023-01-19T22:35:44.710Z,70.80
2023-01-19T22:40:46.876Z,71.00
2023-01-19T22:45:50.564Z,71.10
2023-01-19T22:50:56.091Z,71.10
2023-01-19T22:55:58.271Z,71.40
2023-01-19T23:01:06.897Z,71.40
2023-01-19T23:06:11.726Z,71.50
2023-01-19T23:11:16.541Z,70.70
2023-01-19T23:16:21.397Z,70.60
2023-01-19T23:21:26.132Z,70.40
2023-01-19T23:26:30.034Z,69.90
2023-01-19T23:31:36.769Z,69.40
2023-01-19T23:36:41.207Z,69.40
2023-01-19T23:41:43.797Z,68.60
2023-01-19T23:46:47.453Z,69.10
2023-01-19T23:51:49.614Z,68.40
2023-01-19T23:56:51.872Z,68.30
